Time;durP1;ratioP1;P1;durP2;ratioP2;P2;SDS_P1;SDS_P2;PMS_P1;PMS_P2;Temp;Humidity;BMP_temperature;BMP_pressure;BME280_temperature;BME280_humidity;BME280_pressure;Samples;Min_cycle;Max_cycle;Signal;HPM_P1;HPM_P2
2024/04/06 00:00:28;;;;;;;0.73;0.40;;;;;;;21.60;47.08;100278.72;4524908;28;20489;-50
2024/04/06 00:02:38;;;;;;;0.98;0.50;;;;;;;21.58;47.05;100269.63;4524116;28;20053;-53
2024/04/06 00:04:49;;;;;;;1.13;0.52;;;;;;;21.60;46.92;100280.75;4506767;28;21009;-52
2024/04/06 00:06:59;;;;;;;0.73;0.40;;;;;;;21.60;46.85;100280.75;4525063;28;20042;-50
2024/04/06 00:09:11;;;;;;;2.20;0.70;;;;;;;21.58;47.03;100272.50;4524774;28;20092;-53
2024/04/06 00:11:21;;;;;;;0.60;0.40;;;;;;;21.57;46.94;100264.28;4525223;28;20033;-52
2024/04/06 00:13:32;;;;;;;0.52;0.38;;;;;;;21.59;47.01;100274.19;4527914;28;20026;-53
2024/04/06 00:15:42;;;;;;;0.70;0.45;;;;;;;21.58;46.99;100271.69;4527672;28;20033;-53
2024/04/06 00:17:53;;;;;;;0.70;0.50;;;;;;;21.58;47.43;100266.75;4528114;28;20036;-49
2024/04/06 00:20:03;;;;;;;0.50;0.40;;;;;;;21.57;47.08;100270.03;4509777;28;20438;-53
2024/04/06 00:22:14;;;;;;;0.88;0.50;;;;;;;21.57;47.22;100259.38;4528051;28;20512;-50
2024/04/06 00:24:24;;;;;;;0.70;0.40;;;;;;;21.56;47.04;100269.22;4527896;28;20106;-51
2024/04/06 00:26:35;;;;;;;0.60;0.43;;;;;;;21.57;47.03;100270.84;4509498;28;20634;-50
2024/04/06 00:28:45;;;;;;;1.02;0.50;;;;;;;21.56;47.53;100274.97;4527616;28;20037;-49
2024/04/06 00:30:55;;;;;;;0.90;0.50;;;;;;;21.56;47.15;100280.69;4527211;28;22276;-53
2024/04/06 00:33:06;;;;;;;0.30;0.30;;;;;;;21.57;47.27;100276.59;4495671;28;20049;-53
2024/04/06 00:35:17;;;;;;;0.38;0.38;;;;;;;21.56;47.45;100274.97;4527930;28;20052;-50
2024/04/06 00:37:27;;;;;;;0.95;0.50;;;;;;;21.56;47.13;100280.69;4509593;28;20026;-49
2024/04/06 00:39:37;;;;;;;0.85;0.40;;;;;;;21.56;47.22;100285.59;4527615;28;20049;-50
2024/04/06 00:41:48;;;;;;;0.60;0.40;;;;;;;21.56;47.14;100282.72;4509204;28;20034;-52
2024/04/06 00:44:02;;;;;;;0.50;0.40;;;;;;;21.56;47.01;100279.84;4527454;28;20037;-51
2024/04/06 00:46:13;;;;;;;0.43;0.30;;;;;;;21.55;47.50;100279.03;4527058;28;20037;-49
2024/04/06 00:48:23;;;;;;;0.73;0.40;;;;;;;21.54;47.28;100279.41;4527385;28;20535;-52
2024/04/06 00:50:34;;;;;;;0.60;0.40;;;;;;;21.54;47.16;100280.25;4527607;28;20125;-49
2024/04/06 00:52:45;;;;;;;0.40;0.40;;;;;;;21.55;47.14;100281.09;4527259;28;20021;-50
2024/04/06 00:54:55;;;;;;;1.33;0.40;;;;;;;21.53;47.19;100284.31;4527057;28;20038;-51
2024/04/06 00:57:07;;;;;;;0.40;0.40;;;;;;;21.55;46.89;100283.94;4527628;28;20465;-53
2024/04/06 00:59:18;;;;;;;0.50;0.43;;;;;;;21.53;47.10;100280.63;4527313;28;20064;-52
2024/04/06 01:01:28;;;;;;;0.50;0.50;;;;;;;21.52;46.98;100278.94;4527049;28;20038;-50
2024/04/06 01:03:39;;;;;;;0.40;0.40;;;;;;;21.53;47.09;100278.56;4508730;28;20054;-54
2024/04/06 01:05:50;;;;;;;0.85;0.60;;;;;;;21.53;47.26;100284.31;4527175;28;20552;-51
2024/04/06 01:08:00;;;;;;;0.60;0.32;;;;;;;21.52;47.27;100274.03;4527129;28;20087;-53
2024/04/06 01:10:11;;;;;;;1.40;0.85;;;;;;;21.53;47.06;100280.63;4527143;28;20029;-53
2024/04/06 01:12:22;;;;;;;1.20;0.45;;;;;;;21.52;46.96;100276.06;4527106;28;20069;-50
2024/04/06 01:14:32;;;;;;;0.80;0.50;;;;;;;21.52;46.71;100282.66;4526710;28;20037;-51
2024/04/06 01:16:43;;;;;;;0.90;0.50;;;;;;;21.52;47.19;100279.78;4526559;28;20840;-51
2024/04/06 01:18:54;;;;;;;0.63;0.40;;;;;;;21.52;47.07;100273.19;4527373;28;20087;-49
2024/04/06 01:21:05;;;;;;;0.77;0.40;;;;;;;21.51;46.74;100272.41;4526757;28;20056;-50
2024/04/06 01:23:16;;;;;;;0.77;0.45;;;;;;;21.51;46.66;100272.41;4526730;28;20066;-50
2024/04/06 01:25:27;;;;;;;0.47;0.45;;;;;;;21.52;46.62;100279.78;4527084;28;20029;-51
2024/04/06 01:27:38;;;;;;;0.95;0.40;;;;;;;21.52;46.50;100278.94;4526639;28;20017;-52
2024/04/06 01:29:48;;;;;;;0.70;0.40;;;;;;;21.51;46.69;100275.25;4526746;28;20049;-53
2024/04/06 01:31:58;;;;;;;0.93;0.50;;;;;;;21.50;46.70;100276.44;4527197;28;20033;-49
2024/04/06 01:34:09;;;;;;;0.73;0.40;;;;;;;21.50;46.56;100285.06;4526710;28;20037;-51
2024/04/06 01:36:20;;;;;;;0.55;0.40;;;;;;;21.50;46.23;100282.19;4526411;28;20042;-50
2024/04/06 01:38:30;;;;;;;0.40;0.40;;;;;;;21.49;46.47;100291.19;4526940;28;20069;-52
2024/04/06 01:40:41;;;;;;;0.50;0.40;;;;;;;21.50;46.79;100290.81;4527284;28;20084;-48
2024/04/06 01:42:51;;;;;;;0.52;0.52;;;;;;;21.49;46.38;100280.56;4508589;28;20050;-51
2024/04/06 01:45:02;;;;;;;0.60;0.40;;;;;;;21.48;46.70;100284.66;4526586;28;20116;-53
2024/04/06 01:47:13;;;;;;;0.30;0.30;;;;;;;21.49;46.30;100286.28;4526797;28;20037;-51
2024/04/06 01:49:24;;;;;;;0.60;0.30;;;;;;;21.49;46.61;100289.16;4526989;28;20033;-51
2024/04/06 01:51:34;;;;;;;0.50;0.40;;;;;;;21.49;46.67;100292.03;4528829;28;20113;-50
2024/04/06 01:53:45;;;;;;;0.32;0.30;;;;;;;21.49;46.17;100296.94;4528956;28;20047;-49
2024/04/06 01:55:55;;;;;;;0.55;0.40;;;;;;;21.49;46.61;100294.06;4526551;28;20025;-50
2024/04/06 01:58:06;;;;;;;0.63;0.30;;;;;;;21.48;46.28;100293.25;4509193;28;20037;-49
2024/04/06 02:00:17;;;;;;;0.80;0.50;;;;;;;21.49;46.25;100303.53;4527018;28;20045;-52
2024/04/06 02:02:27;;;;;;;0.30;0.30;;;;;;;21.48;46.39;100301.88;4508802;28;20034;-51
2024/04/06 02:04:40;;;;;;;0.40;0.40;;;;;;;21.48;46.22;100301.03;4526611;28;20095;-51
2024/04/06 02:06:50;;;;;;;0.60;0.30;;;;;;;21.48;46.38;100301.88;4508573;28;20037;-51
2024/04/06 02:09:01;;;;;;;0.50;0.40;;;;;;;21.47;45.90;100297.31;4526220;28;20631;-51
2024/04/06 02:11:11;;;;;;;0.77;0.32;;;;;;;21.47;46.03;100305.94;4526074;28;20040;-53
2024/04/06 02:13:22;;;;;;;1.00;0.30;;;;;;;21.47;46.18;100305.94;4526748;28;20034;-50
2024/04/06 02:15:32;;;;;;;0.30;0.30;;;;;;;21.47;46.06;100305.94;4526449;28;20037;-53
2024/04/06 02:17:44;;;;;;;0.55;0.38;;;;;;;21.46;45.79;100312.06;4526400;28;20041;-48
2024/04/06 02:19:54;;;;;;;0.38;0.35;;;;;;;21.46;46.00;100310.03;4526267;28;20610;-53
2024/04/06 02:22:05;;;;;;;0.40;0.40;;;;;;;21.46;45.94;100304.28;4526759;28;20043;-52
2024/04/06 02:24:18;;;;;;;0.32;0.30;;;;;;;21.46;45.72;100310.03;4526288;28;20073;-51
2024/04/06 02:26:29;;;;;;;0.73;0.50;;;;;;;21.45;45.69;100311.25;4525734;28;20041;-50
2024/04/06 02:28:39;;;;;;;0.40;0.38;;;;;;;21.43;45.73;100313.66;4526085;28;23363;-52
2024/04/06 02:30:51;;;;;;;0.30;0.30;;;;;;;21.45;45.71;100317.00;4508263;28;20038;-49
2024/04/06 02:33:02;;;;;;;0.38;0.38;;;;;;;21.45;46.02;100308.38;4524670;28;20669;-51
2024/04/06 02:35:12;;;;;;;0.63;0.40;;;;;;;21.46;46.17;100323.53;4525429;28;20112;-53
2024/04/06 02:37:23;;;;;;;0.40;0.40;;;;;;;21.45;46.08;100321.91;4525898;28;20029;-50
2024/04/06 02:39:33;;;;;;;0.43;0.38;;;;;;;21.44;46.12;100323.09;4526458;28;20179;-49
2024/04/06 02:41:44;;;;;;;0.30;0.30;;;;;;;21.45;46.17;100317.00;4525875;28;20037;-51
2024/04/06 02:43:54;;;;;;;1.23;0.40;;;;;;;21.44;46.39;100309.56;4525848;28;20032;-51
2024/04/06 02:46:04;;;;;;;0.65;0.35;;;;;;;21.44;46.27;100321.06;4525585;28;20049;-53
2024/04/06 02:48:15;;;;;;;0.50;0.50;;;;;;;21.44;46.18;100321.06;4526220;28;20100;-51
2024/04/06 02:50:25;;;;;;;0.50;0.40;;;;;;;21.44;46.20;100317.34;4525843;28;23777;-53
2024/04/06 02:52:36;;;;;;;0.43;0.40;;;;;;;21.44;46.31;100318.19;4525708;28;20107;-49
2024/04/06 02:54:48;;;;;;;0.60;0.30;;;;;;;21.44;46.23;100323.94;4525613;28;20520;-52
2024/04/06 02:56:58;;;;;;;0.40;0.40;;;;;;;21.44;46.22;100331.69;4525917;28;20041;-52
2024/04/06 02:59:09;;;;;;;0.85;0.30;;;;;;;21.43;46.06;100330.91;4526004;28;20033;-52
2024/04/06 03:01:19;;;;;;;1.48;0.50;;;;;;;21.43;46.00;100328.03;4508840;28;20042;-49
2024/04/06 03:03:30;;;;;;;0.40;0.40;;;;;;;21.43;46.29;100332.94;4507767;28;20042;-50
2024/04/06 03:05:40;;;;;;;0.45;0.40;;;;;;;21.43;46.25;100341.53;4525376;28;20029;-48
2024/04/06 03:07:51;;;;;;;0.30;0.30;;;;;;;21.42;46.66;100334.94;4525945;28;20034;-52
2024/04/06 03:10:01;;;;;;;0.40;0.40;;;;;;;21.42;46.25;100340.69;4525103;28;20038;-54
2024/04/06 03:12:12;;;;;;;0.88;0.32;;;;;;;21.42;46.69;100337.81;4525473;28;20117;-53
2024/04/06 03:14:22;;;;;;;1.30;0.40;;;;;;;21.42;46.19;100325.53;4525067;28;20545;-53
2024/04/06 03:16:33;;;;;;;0.85;0.40;;;;;;;21.41;46.67;100324.69;4525350;28;20041;-49
2024/04/06 03:18:44;;;;;;;0.50;0.50;;;;;;;21.41;46.63;100335.34;4525588;28;20044;-52
2024/04/06 03:20:55;;;;;;;0.50;0.35;;;;;;;21.41;46.93;100330.44;4525624;28;20038;-51
2024/04/06 03:23:06;;;;;;;0.80;0.47;;;;;;;21.40;46.62;100337.41;4525446;28;20493;-53
2024/04/06 03:25:16;;;;;;;0.60;0.50;;;;;;;21.41;46.72;100335.34;4524732;28;20029;-51
2024/04/06 03:27:26;;;;;;;0.30;0.30;;;;;;;21.41;46.42;100336.19;4526030;28;20094;-53
2024/04/06 03:29:38;;;;;;;0.52;0.40;;;;;;;21.40;46.51;100328.78;4525649;28;20037;-53
2024/04/06 03:31:48;;;;;;;0.75;0.30;;;;;;;21.41;46.64;100323.84;4507636;28;20048;-53
2024/04/06 03:33:58;;;;;;;0.30;0.30;;;;;;;21.39;46.92;100327.09;4507674;28;20028;-50
2024/04/06 03:36:09;;;;;;;0.35;0.30;;;;;;;21.40;46.68;100322.19;4525205;28;20041;-53
2024/04/06 03:38:20;;;;;;;0.73;0.35;;;;;;;21.38;47.00;100313.97;4507800;28;20525;-50
2024/04/06 03:40:30;;;;;;;0.77;0.30;;;;;;;21.39;47.01;100315.63;4485788;28;20418;-50
2024/04/06 03:42:41;;;;;;;0.60;0.30;;;;;;;21.39;46.89;100303.31;4508763;28;20104;-50
2024/04/06 03:44:52;;;;;;;0.20;0.20;;;;;;;21.39;47.18;100304.13;4496522;28;21437;-50
2024/04/06 03:47:02;;;;;;;0.30;0.30;;;;;;;21.39;47.07;100295.53;4528446;28;20117;-53
2024/04/06 03:49:13;;;;;;;0.50;0.28;;;;;;;21.39;47.27;100288.97;4529063;28;20108;-53
2024/04/06 03:51:26;;;;;;;0.32;0.32;;;;;;;21.39;47.27;100286.09;4528886;28;20063;-53
2024/04/06 03:53:42;;;;;;;0.57;0.30;;;;;;;21.38;47.52;100296.75;4511974;28;20069;-54
2024/04/06 03:55:52;;;;;;;0.57;0.40;;;;;;;21.38;47.24;100304.50;4510259;28;20101;-54
2024/04/06 03:58:03;;;;;;;0.32;0.32;;;;;;;21.37;47.27;100297.97;4529212;28;20499;-54
2024/04/06 04:00:15;;;;;;;0.30;0.20;;;;;;;21.37;47.46;100289.34;4531016;28;20128;-50
2024/04/06 04:02:26;;;;;;;0.45;0.40;;;;;;;21.37;47.44;100280.75;4528688;28;20041;-53
2024/04/06 04:04:36;;;;;;;0.25;0.25;;;;;;;21.37;47.47;100283.59;4509887;28;20537;-49
2024/04/06 04:06:46;;;;;;;0.57;0.30;;;;;;;21.36;47.54;100284.81;4509807;28;20113;-50
2024/04/06 04:08:57;;;;;;;0.55;0.40;;;;;;;21.36;47.67;100281.94;4509486;28;20125;-54
2024/04/06 04:11:07;;;;;;;0.40;0.30;;;;;;;21.36;47.46;100287.66;4510952;28;20022;-51
2024/04/06 04:13:19;;;;;;;0.55;0.40;;;;;;;21.37;47.54;100288.50;4528142;28;20045;-53
2024/04/06 04:15:30;;;;;;;0.57;0.30;;;;;;;21.36;47.15;100292.59;4527981;28;20041;-53
2024/04/06 04:17:40;;;;;;;0.40;0.40;;;;;;;21.36;47.12;100293.41;4528157;28;20505;-54
2024/04/06 04:19:50;;;;;;;2.25;0.45;;;;;;;21.34;47.43;100284.38;4528011;28;20089;-52
2024/04/06 04:22:01;;;;;;;0.50;0.35;;;;;;;21.35;47.43;100286.03;4528076;28;20048;-50
2024/04/06 04:24:11;;;;;;;0.30;0.30;;;;;;;21.36;47.36;100286.84;4528044;28;20038;-53
2024/04/06 04:26:22;;;;;;;0.82;0.70;;;;;;;21.35;47.17;100291.75;4527708;28;20051;-50
2024/04/06 04:28:32;;;;;;;0.30;0.30;;;;;;;21.34;47.51;100290.13;4528146;28;20033;-51
2024/04/06 04:30:43;;;;;;;0.95;0.40;;;;;;;21.34;47.63;100298.72;4527824;28;20025;-49
2024/04/06 04:32:53;;;;;;;0.40;0.40;;;;;;;21.35;47.52;100300.38;4527752;28;20584;-50
2024/04/06 04:35:04;;;;;;;0.30;0.30;;;;;;;21.35;47.21;100297.50;4527760;28;20038;-54
2024/04/06 04:37:15;;;;;;;0.50;0.50;;;;;;;21.35;47.06;100305.28;4528082;28;20041;-54
2024/04/06 04:39:25;;;;;;;0.30;0.30;;;;;;;21.34;47.55;100303.63;4527702;28;20025;-50
2024/04/06 04:41:36;;;;;;;0.30;0.30;;;;;;;21.33;47.28;100288.44;4527911;28;20084;-54
2024/04/06 04:43:46;;;;;;;0.40;0.40;;;;;;;21.33;47.28;100294.16;4527496;28;20080;-54
2024/04/06 04:45:57;;;;;;;0.30;0.30;;;;;;;21.33;47.30;100299.91;4527107;28;20071;-52
2024/04/06 04:48:07;;;;;;;0.40;0.40;;;;;;;21.33;47.14;100302.78;4528144;28;20034;-50
2024/04/06 04:50:17;;;;;;;0.40;0.30;;;;;;;21.31;47.03;100302.31;4527633;28;20402;-50
2024/04/06 04:52:28;;;;;;;0.30;0.30;;;;;;;21.31;46.71;100293.72;4527322;28;20025;-52
2024/04/06 04:54:40;;;;;;;1.17;0.45;;;;;;;21.32;47.06;100308.91;4509008;28;20042;-49
2024/04/06 04:56:50;;;;;;;0.80;0.40;;;;;;;21.32;47.00;100294.56;4509068;28;20030;-50
2024/04/06 04:59:03;;;;;;;0.57;0.30;;;;;;;21.32;46.59;100297.44;4510148;28;20502;-50
2024/04/06 05:01:18;;;;;;;0.55;0.30;;;;;;;21.32;46.99;100297.44;4511171;28;20995;-54
2024/04/06 05:03:28;;;;;;;0.52;0.40;;;;;;;21.30;47.12;100300.69;4509296;28;20038;-54
2024/04/06 05:05:39;;;;;;;0.40;0.40;;;;;;;21.32;47.25;100308.91;4508752;28;23344;-54
2024/04/06 05:07:49;;;;;;;1.38;0.38;;;;;;;21.31;47.26;100310.94;4527195;28;20464;-50
2024/04/06 05:10:00;;;;;;;0.73;0.30;;;;;;;21.31;47.23;100308.06;4527529;28;20045;-54
2024/04/06 05:12:10;;;;;;;0.45;0.38;;;;;;;21.31;46.92;100313.81;4526778;28;20037;-54
2024/04/06 05:14:21;;;;;;;0.30;0.30;;;;;;;21.31;47.32;100313.81;4527231;28;20120;-52
2024/04/06 05:16:31;;;;;;;0.47;0.38;;;;;;;21.30;47.36;100317.91;4527062;28;20037;-54
2024/04/06 05:18:42;;;;;;;0.55;0.30;;;;;;;21.30;47.27;100314.19;4527262;28;20033;-54
2024/04/06 05:20:57;;;;;;;0.63;0.32;;;;;;;21.30;47.50;100312.16;4527105;28;20095;-54
2024/04/06 05:23:07;;;;;;;0.43;0.40;;;;;;;21.30;47.14;100315.03;4509140;28;20061;-52
2024/04/06 05:25:18;;;;;;;0.30;0.30;;;;;;;21.30;47.49;100317.06;4510029;28;20041;-50
2024/04/06 05:27:28;;;;;;;0.68;0.40;;;;;;;21.30;47.06;100317.91;4527160;28;20026;-49
2024/04/06 05:29:39;;;;;;;0.47;0.20;;;;;;;21.30;47.52;100317.91;4525360;28;20096;-50
2024/04/06 05:31:50;;;;;;;0.30;0.30;;;;;;;21.29;47.55;100319.13;4527032;28;20025;-51
2024/04/06 05:34:01;;;;;;;0.40;0.40;;;;;;;21.30;47.36;100312.16;4508711;28;20026;-50
2024/04/06 05:36:11;;;;;;;1.13;0.30;;;;;;;21.29;47.61;100316.25;4526551;28;20042;-54
2024/04/06 05:38:24;;;;;;;0.52;0.38;;;;;;;21.29;47.81;100327.72;4527019;28;20121;-51
2024/04/06 05:40:42;;;;;;;0.55;0.40;;;;;;;21.29;47.39;100327.72;4526808;28;20120;-50
2024/04/06 05:42:53;;;;;;;0.43;0.32;;;;;;;21.29;47.59;100322.00;4526894;28;20068;-51
2024/04/06 05:45:04;;;;;;;0.50;0.40;;;;;;;21.27;47.99;100323.56;4526404;28;20032;-53
2024/04/06 05:47:14;;;;;;;0.40;0.30;;;;;;;21.28;47.57;100328.94;4526446;28;20036;-52
2024/04/06 05:49:25;;;;;;;0.30;0.30;;;;;;;21.29;47.76;100318.28;4526849;28;20038;-51
2024/04/06 05:51:35;;;;;;;0.38;0.38;;;;;;;21.25;48.09;100315.34;4526575;28;20048;-54
2024/04/06 05:53:46;;;;;;;0.38;0.38;;;;;;;21.29;47.83;100326.91;4518555;28;20037;-50
2024/04/06 05:55:56;;;;;;;0.73;0.30;;;;;;;21.28;48.29;100326.06;4526495;28;20045;-52
2024/04/06 05:58:07;;;;;;;0.57;0.38;;;;;;;21.28;47.84;100319.50;4526359;28;20133;-51
2024/04/06 06:00:18;;;;;;;0.50;0.40;;;;;;;21.28;48.26;100319.50;4526662;28;20091;-53
2024/04/06 06:02:29;;;;;;;0.40;0.40;;;;;;;21.28;48.24;100328.94;4526779;28;20030;-51
2024/04/06 06:04:39;;;;;;;0.65;0.30;;;;;;;21.27;48.33;100312.09;4526753;28;20073;-54
2024/04/06 06:06:50;;;;;;;0.45;0.40;;;;;;;21.25;48.27;100318.19;4527152;28;20485;-54
2024/04/06 06:09:00;;;;;;;0.60;0.30;;;;;;;21.24;48.31;100313.69;4528737;28;20021;-51
2024/04/06 06:11:17;;;;;;;0.90;0.50;;;;;;;21.25;48.58;100318.19;4526377;28;20121;-52
2024/04/06 06:13:27;;;;;;;1.58;0.40;;;;;;;21.24;48.51;100312.84;4526426;28;20044;-51
2024/04/06 06:15:38;;;;;;;0.32;0.30;;;;;;;21.25;48.38;100326.81;4526394;28;20409;-50
2024/04/06 06:17:48;;;;;;;0.40;0.40;;;;;;;21.26;48.67;100321.91;4526699;28;20041;-49
2024/04/06 06:19:58;;;;;;;0.50;0.50;;;;;;;21.24;48.66;100319.41;4526475;28;20037;-49
2024/04/06 06:22:09;;;;;;;0.32;0.32;;;;;;;21.24;49.04;100319.41;4526077;28;20037;-50
2024/04/06 06:24:19;;;;;;;0.52;0.40;;;;;;;21.25;49.31;100320.25;4526213;28;20065;-50
2024/04/06 06:26:30;;;;;;;0.40;0.40;;;;;;;21.24;49.15;100307.94;4525944;28;20038;-49
2024/04/06 06:28:40;;;;;;;1.10;0.40;;;;;;;21.24;49.46;100305.06;4525971;28;23100;-49
2024/04/06 06:30:51;;;;;;;0.40;0.35;;;;;;;21.23;49.54;100312.00;4526083;28;20490;-49
2024/04/06 06:33:01;;;;;;;0.50;0.40;;;;;;;21.24;49.26;100307.09;4526039;28;20510;-49
2024/04/06 06:35:12;;;;;;;0.90;0.38;;;;;;;21.24;49.79;100307.94;4507984;28;20101;-49
2024/04/06 06:37:22;;;;;;;0.40;0.40;;;;;;;21.24;49.71;100307.09;4526115;28;20031;-52
2024/04/06 06:39:32;;;;;;;0.60;0.43;;;;;;;21.25;49.46;100308.78;4525791;28;20041;-52
2024/04/06 06:41:43;;;;;;;0.50;0.50;;;;;;;21.24;49.82;100298.50;4525529;28;20490;-50
2024/04/06 06:43:53;;;;;;;0.70;0.50;;;;;;;21.23;49.84;100294.78;4507910;28;20038;-50
2024/04/06 06:46:04;;;;;;;0.50;0.50;;;;;;;21.23;50.12;100294.78;4507813;28;20045;-49
2024/04/06 06:48:14;;;;;;;0.50;0.30;;;;;;;21.23;50.40;100286.16;4507748;28;20455;-50
2024/04/06 06:50:25;;;;;;;0.65;0.40;;;;;;;21.23;50.56;100289.03;4508105;28;20072;-49
2024/04/06 06:52:35;;;;;;;0.60;0.40;;;;;;;21.23;50.59;100282.50;4525794;28;20037;-49
2024/04/06 06:54:45;;;;;;;0.57;0.40;;;;;;;21.23;50.59;100283.28;4525801;28;20076;-50
2024/04/06 06:56:56;;;;;;;0.30;0.30;;;;;;;21.22;50.67;100298.88;4508152;28;20179;-54
2024/04/06 06:59:07;;;;;;;0.32;0.32;;;;;;;21.23;50.63;100282.50;4525974;28;20045;-49
2024/04/06 07:01:18;;;;;;;1.55;0.45;;;;;;;21.24;51.16;100289.88;4525928;28;20029;-51
2024/04/06 07:03:28;;;;;;;1.02;0.40;;;;;;;21.22;51.13;100290.25;4507182;28;20046;-53
2024/04/06 07:05:39;;;;;;;1.10;0.43;;;;;;;21.24;51.31;100289.88;4525438;28;20072;-49
2024/04/06 07:07:54;;;;;;;0.52;0.50;;;;;;;21.22;51.01;100290.25;4525615;28;20556;-49
2024/04/06 07:10:06;;;;;;;0.50;0.50;;;;;;;21.23;50.85;100289.03;4526007;28;20124;-53
2024/04/06 07:12:16;;;;;;;0.63;0.50;;;;;;;21.23;51.02;100293.97;4489710;28;20065;-50
2024/04/06 07:14:27;;;;;;;0.52;0.50;;;;;;;21.23;50.81;100294.78;4506824;28;20033;-49
2024/04/06 07:16:38;;;;;;;0.70;0.50;;;;;;;21.24;51.03;100296.47;4525254;28;20044;-51
2024/04/06 07:18:49;;;;;;;0.73;0.50;;;;;;;21.23;50.75;100289.03;4507651;28;20084;-54
2024/04/06 07:21:00;;;;;;;1.02;0.50;;;;;;;21.24;50.67;100290.72;4524684;28;20125;-53
2024/04/06 07:23:11;;;;;;;0.60;0.50;;;;;;;21.25;50.68;100291.56;4525454;28;20050;-50
2024/04/06 07:25:21;;;;;;;0.60;0.40;;;;;;;21.25;50.52;100274.34;4525185;28;20033;-54
2024/04/06 07:27:32;;;;;;;0.50;0.40;;;;;;;21.25;50.51;100269.41;4525332;28;20127;-53
2024/04/06 07:29:42;;;;;;;0.47;0.47;;;;;;;21.25;50.18;100275.16;4525518;28;20044;-50
2024/04/06 07:31:52;;;;;;;0.75;0.40;;;;;;;21.25;51.11;100272.28;4524626;28;20084;-52
2024/04/06 07:34:03;;;;;;;0.63;0.52;;;;;;;21.25;50.87;100280.88;4525033;28;23162;-50
2024/04/06 07:36:13;;;;;;;0.75;0.50;;;;;;;21.25;50.39;100286.63;4507490;28;20051;-49
2024/04/06 07:38:27;;;;;;;0.55;0.50;;;;;;;21.24;50.31;100284.97;4525513;28;20088;-54
2024/04/06 07:40:38;;;;;;;1.02;0.60;;;;;;;21.26;50.25;100281.72;4525381;28;20091;-51
2024/04/06 07:42:51;;;;;;;0.50;0.50;;;;;;;21.26;49.87;100282.56;4524972;28;20043;-54
2024/04/06 07:45:02;;;;;;;0.40;0.40;;;;;;;21.26;50.42;100288.31;4524185;28;20041;-53
2024/04/06 07:47:13;;;;;;;1.10;0.52;;;;;;;21.26;50.60;100276.00;4506330;28;20309;-51
2024/04/06 07:49:23;;;;;;;1.95;0.50;;;;;;;21.27;50.92;100280.50;4524378;28;20038;-54
2024/04/06 07:51:34;;;;;;;0.50;0.50;;;;;;;21.26;50.20;100273.13;4490764;28;20038;-53
2024/04/06 07:53:44;;;;;;;1.10;0.60;;;;;;;21.26;50.63;100270.25;4524454;28;22997;-50
2024/04/06 07:55:56;;;;;;;1.27;0.65;;;;;;;21.26;50.80;100268.22;4525008;28;20038;-50
2024/04/06 07:58:06;;;;;;;0.57;0.57;;;;;;;21.26;51.25;100276.81;4524924;28;20048;-51
2024/04/06 08:00:17;;;;;;;1.25;0.60;;;;;;;21.26;51.05;100270.25;4525124;28;20028;-49
2024/04/06 08:02:29;;;;;;;0.60;0.60;;;;;;;21.27;50.71;100269.03;4525090;28;20038;-50
2024/04/06 08:04:39;;;;;;;0.68;0.68;;;;;;;21.25;50.31;100263.66;4524993;28;20041;-52
2024/04/06 08:06:50;;;;;;;0.77;0.70;;;;;;;21.26;50.44;100259.59;4524950;28;20041;-50
2024/04/06 08:09:01;;;;;;;0.47;0.47;;;;;;;21.28;50.76;100256.34;4524785;28;20038;-50
2024/04/06 08:11:11;;;;;;;0.90;0.50;;;;;;;21.27;50.64;100260.41;4524542;28;20397;-50
2024/04/06 08:13:22;;;;;;;0.60;0.60;;;;;;;21.27;50.51;100263.28;4525884;28;20041;-49
2024/04/06 08:15:32;;;;;;;1.30;0.70;;;;;;;21.26;50.65;100261.63;4510416;28;20038;-51
2024/04/06 08:17:50;;;;;;;0.50;0.50;;;;;;;21.26;51.04;100271.09;4525531;28;20067;-53
2024/04/06 08:20:01;;;;;;;0.60;0.50;;;;;;;21.27;51.54;100271.91;4508441;28;20038;-52
2024/04/06 08:22:12;;;;;;;0.73;0.60;;;;;;;21.25;50.70;100263.66;4525031;28;20029;-51
2024/04/06 08:24:22;;;;;;;0.70;0.70;;;;;;;21.26;50.97;100271.09;4524402;28;20064;-50
2024/04/06 08:26:33;;;;;;;0.90;0.55;;;;;;;21.27;50.97;100269.03;4524823;28;21284;-50
2024/04/06 08:28:44;;;;;;;0.50;0.50;;;;;;;21.27;50.82;100266.16;4524626;28;20608;-51
2024/04/06 08:30:54;;;;;;;0.40;0.40;;;;;;;21.28;51.23;100262.09;4524704;28;20033;-54
2024/04/06 08:33:07;;;;;;;0.98;0.60;;;;;;;21.28;51.10;100267.84;4508937;28;20077;-54
2024/04/06 08:35:18;;;;;;;1.23;0.70;;;;;;;21.27;51.53;100254.66;4527122;28;20037;-52
2024/04/06 08:37:28;;;;;;;1.38;0.60;;;;;;;21.28;51.44;100259.22;4509614;28;20036;-52
2024/04/06 08:39:39;;;;;;;1.77;0.77;;;;;;;21.27;51.35;100254.66;4527551;28;20038;-51
2024/04/06 08:41:51;;;;;;;0.63;0.50;;;;;;;21.28;51.13;100262.09;4527662;28;20417;-51
2024/04/06 08:44:04;;;;;;;0.65;0.60;;;;;;;21.28;51.95;100260.03;4527448;28;20135;-50
2024/04/06 08:46:15;;;;;;;0.52;0.52;;;;;;;21.28;52.12;100265.78;4526987;28;20042;-50
2024/04/06 08:48:28;;;;;;;1.35;0.70;;;;;;;21.28;52.01;100267.84;4527446;28;20314;-52
2024/04/06 08:50:40;;;;;;;0.70;0.63;;;;;;;21.28;51.07;100262.91;4527191;28;20037;-53
2024/04/06 08:52:51;;;;;;;0.75;0.60;;;;;;;21.28;51.07;100264.97;4527178;28;20040;-54
2024/04/06 08:55:03;;;;;;;1.75;0.60;;;;;;;21.28;50.51;100262.91;4526831;28;20045;-50
2024/04/06 08:57:14;;;;;;;0.50;0.50;;;;;;;21.28;49.95;100265.78;4526155;28;20025;-49
2024/04/06 08:59:24;;;;;;;0.65;0.60;;;;;;;21.27;49.73;100266.16;4527186;28;20087;-50
2024/04/06 09:01:35;;;;;;;1.23;0.60;;;;;;;21.28;49.82;100259.22;4509365;28;20041;-51
2024/04/06 09:03:45;;;;;;;0.82;0.70;;;;;;;21.29;50.16;100266.59;4526979;28;20069;-50
2024/04/06 09:05:56;;;;;;;0.80;0.60;;;;;;;21.28;49.53;100260.03;4526615;28;20124;-54
2024/04/06 09:08:06;;;;;;;0.65;0.50;;;;;;;21.29;49.67;100258.00;4526755;28;20042;-51
2024/04/06 09:10:17;;;;;;;0.60;0.60;;;;;;;21.30;49.61;100259.66;4526542;28;20124;-53
2024/04/06 09:12:28;;;;;;;0.77;0.50;;;;;;;21.28;49.78;100251.41;4527067;28;20038;-52
2024/04/06 09:14:41;;;;;;;0.60;0.60;;;;;;;21.28;49.74;100247.75;4526226;28;20037;-53
2024/04/06 09:16:54;;;;;;;1.10;0.50;;;;;;;21.28;49.85;100242.81;4527075;28;20054;-49
2024/04/06 09:19:05;;;;;;;0.93;0.60;;;;;;;21.29;50.27;100244.50;4527024;28;20117;-54
2024/04/06 09:21:17;;;;;;;0.95;0.52;;;;;;;21.28;49.86;100239.13;4526900;28;20126;-50
2024/04/06 09:23:27;;;;;;;1.05;0.70;;;;;;;21.30;50.20;100239.56;4509248;28;20050;-51
2024/04/06 09:25:38;;;;;;;0.70;0.60;;;;;;;21.29;50.17;100243.66;4526788;28;20046;-52
2024/04/06 09:27:48;;;;;;;0.50;0.50;;;;;;;21.28;50.11;100239.94;4526617;28;20433;-51
2024/04/06 09:29:59;;;;;;;1.30;0.50;;;;;;;21.28;49.44;100234.19;4508923;28;20172;-52
2024/04/06 09:32:14;;;;;;;0.50;0.50;;;;;;;21.29;49.52;100230.13;4527067;28;20120;-49
2024/04/06 09:34:26;;;;;;;0.60;0.60;;;;;;;21.28;48.96;100237.06;4526116;28;20044;-52
2024/04/06 09:36:42;;;;;;;0.50;0.50;;;;;;;21.30;49.20;100234.66;4508392;28;20038;-50
2024/04/06 09:38:54;;;;;;;0.50;0.50;;;;;;;21.30;49.67;100231.78;4526406;28;20041;-52
2024/04/06 09:41:05;;;;;;;0.57;0.50;;;;;;;21.31;50.48;100226.88;4526822;28;20538;-53
2024/04/06 09:43:16;;;;;;;0.98;0.60;;;;;;;21.30;49.36;100225.19;4526321;28;20851;-50
2024/04/06 09:45:26;;;;;;;0.88;0.63;;;;;;;21.30;49.82;100226.03;4526306;28;20032;-49
2024/04/06 09:47:38;;;;;;;0.63;0.63;;;;;;;21.31;50.31;100224.00;4526566;28;20040;-53
2024/04/06 09:49:49;;;;;;;0.80;0.60;;;;;;;21.30;49.29;100217.44;4526639;28;20052;-50
2024/04/06 09:52:00;;;;;;;1.00;0.60;;;;;;;21.31;49.97;100227.69;4526399;28;20563;-52
2024/04/06 09:54:11;;;;;;;0.70;0.57;;;;;;;21.32;49.87;100220.75;4526867;28;20108;-50
2024/04/06 09:56:22;;;;;;;0.73;0.57;;;;;;;21.32;48.90;100223.63;4526195;28;20021;-53
2024/04/06 09:58:33;;;;;;;0.75;0.50;;;;;;;21.31;48.45;100216.22;4526171;28;20040;-50
2024/04/06 10:00:46;;;;;;;0.65;0.50;;;;;;;21.31;48.30;100221.94;4526257;28;20033;-50
2024/04/06 10:02:59;;;;;;;0.80;0.50;;;;;;;21.32;48.91;100206.41;4508203;28;20022;-52
2024/04/06 10:05:11;;;;;;;0.60;0.55;;;;;;;21.32;49.23;100220.75;4525947;28;20033;-53
2024/04/06 10:07:29;;;;;;;0.75;0.57;;;;;;;21.33;49.79;100213.78;4508241;28;20049;-51